sensor_id;sensor_type;location;lat;lon;timestamp;pressure;altitude;pressure_sealevel;temperature;humidity
11648;BME280;5880;52.342;9.662;2023-07-28T00:02:24;99694.50;;;22.49;61.68
11648;BME280;5880;52.342;9.662;2023-07-28T00:04:49;99706.13;;;22.51;61.83
11648;BME280;5880;52.342;9.662;2023-07-28T00:07:15;99704.63;;;22.54;61.78
11648;BME280;5880;52.342;9.662;2023-07-28T00:09:41;99707.41;;;22.54;61.70
11648;BME280;5880;52.342;9.662;2023-07-28T00:12:06;99704.63;;;22.54;61.74
11648;BME280;5880;52.342;9.662;2023-07-28T00:14:32;99704.63;;;22.54;61.72
11648;BME280;5880;52.342;9.662;2023-07-28T00:16:58;99702.66;;;22.54;61.78
11648;BME280;5880;52.342;9.662;2023-07-28T00:19:24;99692.34;;;22.55;61.64
11648;BME280;5880;52.342;9.662;2023-07-28T00:21:51;99695.16;;;22.55;61.72
11648;BME280;5880;52.342;9.662;2023-07-28T00:24:18;99695.16;;;22.55;61.77
11648;BME280;5880;52.342;9.662;2023-07-28T00:26:44;99695.16;;;22.55;61.63
11648;BME280;5880;52.342;9.662;2023-07-28T00:29:10;99692.19;;;22.51;61.71
11648;BME280;5880;52.342;9.662;2023-07-28T00:31:36;99695.16;;;22.55;61.61
11648;BME280;5880;52.342;9.662;2023-07-28T00:34:02;99708.22;;;22.54;61.76
11648;BME280;5880;52.342;9.662;2023-07-28T00:36:29;99701.84;;;22.54;61.65
11648;BME280;5880;52.342;9.662;2023-07-28T00:38:54;99702.19;;;22.52;61.73
11648;BME280;5880;52.342;9.662;2023-07-28T00:41:20;99708.22;;;22.54;61.66
11648;BME280;5880;52.342;9.662;2023-07-28T00:43:46;99702.66;;;22.54;61.66
11648;BME280;5880;52.342;9.662;2023-07-28T00:46:12;99706.28;;;22.55;61.56
11648;BME280;5880;52.342;9.662;2023-07-28T00:48:40;99706.28;;;22.55;61.66
11648;BME280;5880;52.342;9.662;2023-07-28T00:51:07;99714.63;;;22.55;61.78
11648;BME280;5880;52.342;9.662;2023-07-28T00:53:33;99709.06;;;22.55;61.70
11648;BME280;5880;52.342;9.662;2023-07-28T00:56:00;99705.00;;;22.52;61.73
11648;BME280;5880;52.342;9.662;2023-07-28T00:58:27;99700.22;;;22.53;61.69
11648;BME280;5880;52.342;9.662;2023-07-28T01:00:52;99705.31;;;22.51;61.61
11648;BME280;5880;52.342;9.662;2023-07-28T01:03:19;99705.44;;;22.54;61.75
11648;BME280;5880;52.342;9.662;2023-07-28T01:06:13;99701.53;;;22.55;61.60
11648;BME280;5880;52.342;9.662;2023-07-28T01:08:49;99709.88;;;22.55;61.64
11648;BME280;5880;52.342;9.662;2023-07-28T01:11:19;99703.81;;;22.53;61.76
11648;BME280;5880;52.342;9.662;2023-07-28T01:13:46;99700.72;;;22.55;61.66
11648;BME280;5880;52.342;9.662;2023-07-28T01:16:11;99701.53;;;22.55;61.62
11648;BME280;5880;52.342;9.662;2023-07-28T01:18:37;99698.25;;;22.53;61.65
11648;BME280;5880;52.342;9.662;2023-07-28T01:21:07;99695.63;;;22.57;61.69
11648;BME280;5880;52.342;9.662;2023-07-28T01:26:12;99693.50;;;22.54;61.77
11648;BME280;5880;52.342;9.662;2023-07-28T01:28:41;99694.31;;;22.54;61.75
11648;BME280;5880;52.342;9.662;2023-07-28T01:31:09;99697.94;;;22.55;61.77
11648;BME280;5880;52.342;9.662;2023-07-28T01:33:35;99694.78;;;22.57;61.73
11648;BME280;5880;52.342;9.662;2023-07-28T01:36:01;99689.41;;;22.51;61.81
11648;BME280;5880;52.342;9.662;2023-07-28T01:38:28;99695.94;;;22.55;61.75
11648;BME280;5880;52.342;9.662;2023-07-28T01:40:54;99685.63;;;22.56;61.79
11648;BME280;5880;52.342;9.662;2023-07-28T01:43:20;99694.31;;;22.54;61.70
11648;BME280;5880;52.342;9.662;2023-07-28T01:45:46;99697.09;;;22.54;61.73
11648;BME280;5880;52.342;9.662;2023-07-28T01:48:11;99699.06;;;22.54;61.79
11648;BME280;5880;52.342;9.662;2023-07-28T01:50:38;99695.16;;;22.55;61.73
11648;BME280;5880;52.342;9.662;2023-07-28T01:53:07;99692.19;;;22.51;61.69
11648;BME280;5880;52.342;9.662;2023-07-28T01:55:32;99707.41;;;22.54;61.66
11648;BME280;5880;52.342;9.662;2023-07-28T01:58:01;99709.88;;;22.55;61.64
11648;BME280;5880;52.342;9.662;2023-07-28T02:00:27;99698.75;;;22.55;61.72
11648;BME280;5880;52.342;9.662;2023-07-28T02:02:54;99697.09;;;22.54;61.74
11648;BME280;5880;52.342;9.662;2023-07-28T02:05:21;99706.28;;;22.55;61.70
11648;BME280;5880;52.342;9.662;2023-07-28T02:07:47;99703.50;;;22.55;61.80
11648;BME280;5880;52.342;9.662;2023-07-28T02:10:13;99701.03;;;22.53;61.78
11648;BME280;5880;52.342;9.662;2023-07-28T02:12:39;99704.31;;;22.55;61.89
11648;BME280;5880;52.342;9.662;2023-07-28T02:15:06;99702.34;;;22.56;61.70
11648;BME280;5880;52.342;9.662;2023-07-28T02:17:33;99703.97;;;22.57;61.85
11648;BME280;5880;52.342;9.662;2023-07-28T02:19:58;99698.41;;;22.57;61.74
11648;BME280;5880;52.342;9.662;2023-07-28T02:22:24;99697.56;;;22.57;61.77
11648;BME280;5880;52.342;9.662;2023-07-28T02:24:50;99692.34;;;22.55;61.83
11648;BME280;5880;52.342;9.662;2023-07-28T02:27:16;99689.56;;;22.55;61.81
11648;BME280;5880;52.342;9.662;2023-07-28T02:29:41;99693.00;;;22.52;61.87
11648;BME280;5880;52.342;9.662;2023-07-28T02:32:10;99700.34;;;22.57;61.74
11648;BME280;5880;52.342;9.662;2023-07-28T02:34:36;99711.50;;;22.57;61.76
11648;BME280;5880;52.342;9.662;2023-07-28T02:37:01;99713.78;;;22.54;61.82
11648;BME280;5880;52.342;9.662;2023-07-28T02:39:28;99704.31;;;22.55;61.73
11648;BME280;5880;52.342;9.662;2023-07-28T02:41:54;99703.97;;;22.57;61.73
11648;BME280;5880;52.342;9.662;2023-07-28T02:44:19;99699.56;;;22.56;61.74
11648;BME280;5880;52.342;9.662;2023-07-28T02:46:45;99707.09;;;22.55;61.75
11648;BME280;5880;52.342;9.662;2023-07-28T02:49:11;99709.88;;;22.55;61.73
11648;BME280;5880;52.342;9.662;2023-07-28T02:51:36;99714.63;;;22.55;61.63
11648;BME280;5880;52.342;9.662;2023-07-28T02:54:02;99720.69;;;22.57;61.74
11648;BME280;5880;52.342;9.662;2023-07-28T02:56:29;99725.78;;;22.55;61.75
11648;BME280;5880;52.342;9.662;2023-07-28T02:58:54;99725.41;;;22.57;61.76
11648;BME280;5880;52.342;9.662;2023-07-28T03:01:20;99732.16;;;22.55;61.76
11648;BME280;5880;52.342;9.662;2023-07-28T03:03:46;99723.00;;;22.55;61.77
11648;BME280;5880;52.342;9.662;2023-07-28T03:06:12;99720.03;;;22.51;61.79
11648;BME280;5880;52.342;9.662;2023-07-28T03:08:38;99722.16;;;22.54;61.74
11648;BME280;5880;52.342;9.662;2023-07-28T03:11:04;99730.19;;;22.56;61.84
11648;BME280;5880;52.342;9.662;2023-07-28T03:13:29;99729.84;;;22.58;61.77
11648;BME280;5880;52.342;9.662;2023-07-28T03:15:55;99731.00;;;22.57;61.43
11648;BME280;5880;52.342;9.662;2023-07-28T03:18:21;99729.19;;;22.52;61.75
11648;BME280;5880;52.342;9.662;2023-07-28T03:20:47;99737.72;;;22.55;61.86
11648;BME280;5880;52.342;9.662;2023-07-28T03:23:13;99731.81;;;22.57;61.66
11648;BME280;5880;52.342;9.662;2023-07-28T03:25:39;99731.00;;;22.57;61.85
11648;BME280;5880;52.342;9.662;2023-07-28T03:28:05;99739.34;;;22.57;61.76
11648;BME280;5880;52.342;9.662;2023-07-28T03:30:30;99731.00;;;22.57;61.91
11648;BME280;5880;52.342;9.662;2023-07-28T03:32:56;99728.19;;;22.57;61.77
11648;BME280;5880;52.342;9.662;2023-07-28T03:35:22;99733.78;;;22.57;61.78
11648;BME280;5880;52.342;9.662;2023-07-28T03:37:48;99731.00;;;22.57;61.79
11648;BME280;5880;52.342;9.662;2023-07-28T03:40:14;99743.78;;;22.58;61.78
11648;BME280;5880;52.342;9.662;2023-07-28T03:42:39;99746.56;;;22.58;61.76
11648;BME280;5880;52.342;9.662;2023-07-28T03:45:06;99741.81;;;22.58;61.82
11648;BME280;5880;52.342;9.662;2023-07-28T03:47:32;99740.19;;;22.57;61.69
11648;BME280;5880;52.342;9.662;2023-07-28T03:49:58;99744.41;;;22.54;61.67
11648;BME280;5880;52.342;9.662;2023-07-28T03:52:23;99741.00;;;22.58;61.86
11648;BME280;5880;52.342;9.662;2023-07-28T03:54:49;99747.38;;;22.58;61.91
11648;BME280;5880;52.342;9.662;2023-07-28T03:57:15;99754.91;;;22.58;61.88
11648;BME280;5880;52.342;9.662;2023-07-28T03:59:40;99746.06;;;22.55;61.83
11648;BME280;5880;52.342;9.662;2023-07-28T04:02:06;99750.16;;;22.58;61.79
11648;BME280;5880;52.342;9.662;2023-07-28T04:04:32;99750.16;;;22.58;61.87
11648;BME280;5880;52.342;9.662;2023-07-28T04:06:57;99748.53;;;22.57;61.93
11648;BME280;5880;52.342;9.662;2023-07-28T04:09:23;99739.69;;;22.55;62.01
11648;BME280;5880;52.342;9.662;2023-07-28T04:11:49;99743.41;;;22.59;61.94
11648;BME280;5880;52.342;9.662;2023-07-28T04:14:15;99756.88;;;22.57;62.01
11648;BME280;5880;52.342;9.662;2023-07-28T04:16:41;99754.91;;;22.58;61.85
11648;BME280;5880;52.342;9.662;2023-07-28T04:19:06;99756.53;;;22.59;61.82
11648;BME280;5880;52.342;9.662;2023-07-28T04:21:32;99765.25;;;22.57;61.96
11648;BME280;5880;52.342;9.662;2023-07-28T04:23:58;99764.41;;;22.57;61.88
11648;BME280;5880;52.342;9.662;2023-07-28T04:26:24;99762.09;;;22.59;61.98
11648;BME280;5880;52.342;9.662;2023-07-28T04:28:50;99762.47;;;22.57;61.85
11648;BME280;5880;52.342;9.662;2023-07-28T04:31:16;99747.56;;;22.53;61.96
11648;BME280;5880;52.342;9.662;2023-07-28T04:33:43;99764.06;;;22.58;61.99
11648;BME280;5880;52.342;9.662;2023-07-28T04:36:09;99761.28;;;22.58;62.04
11648;BME280;5880;52.342;9.662;2023-07-28T04:38:35;99766.03;;;22.58;61.99
11648;BME280;5880;52.342;9.662;2023-07-28T04:41:01;99758.50;;;22.58;62.00
11648;BME280;5880;52.342;9.662;2023-07-28T04:43:27;99755.22;;;22.56;61.75
11648;BME280;5880;52.342;9.662;2023-07-28T04:45:53;99762.09;;;22.59;61.98
11648;BME280;5880;52.342;9.662;2023-07-28T04:48:19;99772.59;;;22.62;62.05
11648;BME280;5880;52.342;9.662;2023-07-28T04:50:45;99767.03;;;22.62;62.11
11648;BME280;5880;52.342;9.662;2023-07-28T04:53:11;99759.31;;;22.59;62.23
11648;BME280;5880;52.342;9.662;2023-07-28T04:55:36;99767.47;;;22.64;62.04
11648;BME280;5880;52.342;9.662;2023-07-28T04:58:02;99768.31;;;22.64;62.17
11648;BME280;5880;52.342;9.662;2023-07-28T05:00:28;99777.47;;;22.65;62.30
11648;BME280;5880;52.342;9.662;2023-07-28T05:02:54;99773.53;;;22.66;62.25
11648;BME280;5880;52.342;9.662;2023-07-28T05:05:19;99786.66;;;22.65;62.26
11648;BME280;5880;52.342;9.662;2023-07-28T05:07:45;99789.13;;;22.67;62.22
11648;BME280;5880;52.342;9.662;2023-07-28T05:10:11;99783.88;;;22.65;62.19
11648;BME280;5880;52.342;9.662;2023-07-28T05:12:36;99789.44;;;22.65;62.18
11648;BME280;5880;52.342;9.662;2023-07-28T05:15:02;99786.16;;;22.63;62.25
11648;BME280;5880;52.342;9.662;2023-07-28T05:17:29;99789.91;;;22.67;62.28
11648;BME280;5880;52.342;9.662;2023-07-28T05:19:55;99791.53;;;22.68;62.18
11648;BME280;5880;52.342;9.662;2023-07-28T05:22:21;99790.25;;;22.66;62.15
11648;BME280;5880;52.342;9.662;2023-07-28T05:24:46;99799.56;;;22.70;62.24
11648;BME280;5880;52.342;9.662;2023-07-28T05:27:12;99785.84;;;22.65;62.33
11648;BME280;5880;52.342;9.662;2023-07-28T05:29:38;99796.31;;;22.68;62.09
11648;BME280;5880;52.342;9.662;2023-07-28T05:32:05;99804.47;;;22.73;62.17
11648;BME280;5880;52.342;9.662;2023-07-28T05:34:31;99807.25;;;22.73;62.15
11648;BME280;5880;52.342;9.662;2023-07-28T05:36:57;99818.88;;;22.75;62.22
11648;BME280;5880;52.342;9.662;2023-07-28T05:39:23;99813.31;;;22.75;62.27
11648;BME280;5880;52.342;9.662;2023-07-28T05:41:48;99810.53;;;22.75;62.30
11648;BME280;5880;52.342;9.662;2023-07-28T05:44:14;99813.66;;;22.73;62.22
11648;BME280;5880;52.342;9.662;2023-07-28T05:46:40;99820.66;;;22.80;62.32
11648;BME280;5880;52.342;9.662;2023-07-28T05:49:06;99818.22;;;22.78;62.30
11648;BME280;5880;52.342;9.662;2023-07-28T05:51:31;99823.94;;;22.82;62.38
11648;BME280;5880;52.342;9.662;2023-07-28T05:53:57;99824.63;;;22.79;62.50
11648;BME280;5880;52.342;9.662;2023-07-28T05:56:23;99822.63;;;22.79;62.42
11648;BME280;5880;52.342;9.662;2023-07-28T05:58:50;99830.47;;;22.86;62.40
11648;BME280;5880;52.342;9.662;2023-07-28T06:01:16;99832.91;;;22.87;62.61
11648;BME280;5880;52.342;9.662;2023-07-28T06:03:42;99835.38;;;22.89;62.62
11648;BME280;5880;52.342;9.662;2023-07-28T06:06:08;99837.03;;;22.90;62.54
11648;BME280;5880;52.342;9.662;2023-07-28T06:08:34;99831.78;;;22.88;62.48
11648;BME280;5880;52.342;9.662;2023-07-28T06:11:04;99835.06;;;22.90;62.57
11648;BME280;5880;52.342;9.662;2023-07-28T06:13:31;99838.97;;;22.89;62.56
11648;BME280;5880;52.342;9.662;2023-07-28T06:15:57;99836.19;;;22.89;62.46
11648;BME280;5880;52.342;9.662;2023-07-28T06:18:24;99843.06;;;22.92;62.59
11648;BME280;5880;52.342;9.662;2023-07-28T06:20:50;99838.31;;;22.92;62.52
11648;BME280;5880;52.342;9.662;2023-07-28T06:23:16;99852.75;;;22.94;62.71
11648;BME280;5880;52.342;9.662;2023-07-28T06:25:41;99849.59;;;22.96;62.69
11648;BME280;5880;52.342;9.662;2023-07-28T06:28:13;99850.94;;;22.99;62.83
11648;BME280;5880;52.342;9.662;2023-07-28T06:30:39;99860.94;;;23.00;62.89
11648;BME280;5880;52.342;9.662;2023-07-28T06:33:08;99849.94;;;23.03;62.75
11648;BME280;5880;52.342;9.662;2023-07-28T06:35:34;99857.81;;;23.01;62.70
11648;BME280;5880;52.342;9.662;2023-07-28T06:38:01;99864.34;;;23.05;62.62
11648;BME280;5880;52.342;9.662;2023-07-28T06:40:27;99859.94;;;23.04;62.78
11648;BME280;5880;52.342;9.662;2023-07-28T06:42:53;99862.84;;;23.08;62.72
11648;BME280;5880;52.342;9.662;2023-07-28T06:45:20;99866.13;;;23.10;62.75
11648;BME280;5880;52.342;9.662;2023-07-28T06:47:46;99875.78;;;23.12;62.79
11648;BME280;5880;52.342;9.662;2023-07-28T06:50:12;99871.50;;;23.15;62.72
11648;BME280;5880;52.342;9.662;2023-07-28T06:52:38;99877.91;;;23.15;62.65
11648;BME280;5880;52.342;9.662;2023-07-28T06:55:04;99879.56;;;23.16;62.86
11648;BME280;5880;52.342;9.662;2023-07-28T06:57:30;99882.00;;;23.18;62.87
11648;BME280;5880;52.342;9.662;2023-07-28T06:59:59;99877.72;;;23.21;62.62
11648;BME280;5880;52.342;9.662;2023-07-28T07:02:25;99884.94;;;23.22;62.77
11648;BME280;5880;52.342;9.662;2023-07-28T07:04:51;99888.88;;;23.21;62.68
11648;BME280;5880;52.342;9.662;2023-07-28T07:07:16;99889.00;;;23.24;62.71
11648;BME280;5880;52.342;9.662;2023-07-28T07:09:42;99892.28;;;23.26;62.56
11648;BME280;5880;52.342;9.662;2023-07-28T07:12:08;99886.59;;;23.23;62.72
11648;BME280;5880;52.342;9.662;2023-07-28T07:14:34;99900.31;;;23.28;62.74
11648;BME280;5880;52.342;9.662;2023-07-28T07:17:00;99897.19;;;23.29;62.90
11648;BME280;5880;52.342;9.662;2023-07-28T07:19:28;99898.47;;;23.32;62.72
11648;BME280;5880;52.342;9.662;2023-07-28T07:21:55;99896.53;;;23.32;62.97
11648;BME280;5880;52.342;9.662;2023-07-28T07:24:20;99906.69;;;23.37;62.97
11648;BME280;5880;52.342;9.662;2023-07-28T07:26:47;99906.31;;;23.38;63.08
11648;BME280;5880;52.342;9.662;2023-07-28T07:29:12;99900.59;;;23.44;63.08
11648;BME280;5880;52.342;9.662;2023-07-28T07:31:38;99911.06;;;23.47;63.12
11648;BME280;5880;52.342;9.662;2023-07-28T07:34:04;99902.69;;;23.47;63.41
11648;BME280;5880;52.342;9.662;2023-07-28T07:36:30;99910.66;;;23.57;63.31
11648;BME280;5880;52.342;9.662;2023-07-28T07:38:56;99917.19;;;23.61;63.40
11648;BME280;5880;52.342;9.662;2023-07-28T07:41:23;99909.94;;;23.69;63.19
11648;BME280;5880;52.342;9.662;2023-07-28T07:43:53;99913.69;;;23.73;63.00
11648;BME280;5880;52.342;9.662;2023-07-28T07:46:19;99905.31;;;23.73;63.06
11648;BME280;5880;52.342;9.662;2023-07-28T07:48:48;99910.41;;;23.79;63.02
11648;BME280;5880;52.342;9.662;2023-07-28T07:51:14;99900.84;;;23.80;63.29
11648;BME280;5880;52.342;9.662;2023-07-28T07:53:40;99916.84;;;23.92;63.71
11648;BME280;5880;52.342;9.662;2023-07-28T07:56:06;99916.94;;;24.05;64.06
11648;BME280;5880;52.342;9.662;2023-07-28T07:58:33;99923.41;;;24.17;64.45
11648;BME280;5880;52.342;9.662;2023-07-28T08:00:59;99921.47;;;24.30;64.17
11648;BME280;5880;52.342;9.662;2023-07-28T08:03:25;99928.75;;;24.43;64.13
11648;BME280;5880;52.342;9.662;2023-07-28T08:05:51;99914.75;;;24.52;63.94
11648;BME280;5880;52.342;9.662;2023-07-28T08:08:18;99930.03;;;24.67;63.85
11648;BME280;5880;52.342;9.662;2023-07-28T08:10:48;99929.00;;;24.72;63.34
11648;BME280;5880;52.342;9.662;2023-07-28T08:13:15;99925.66;;;24.78;63.04
11648;BME280;5880;52.342;9.662;2023-07-28T08:15:44;99927.91;;;24.85;63.17
11648;BME280;5880;52.342;9.662;2023-07-28T08:18:14;99932.94;;;24.92;63.09
11648;BME280;5880;52.342;9.662;2023-07-28T08:20:40;99934.31;;;24.98;62.80
11648;BME280;5880;52.342;9.662;2023-07-28T08:23:06;99936.56;;;25.04;62.64
11648;BME280;5880;52.342;9.662;2023-07-28T08:25:31;99939.13;;;25.10;63.00
11648;BME280;5880;52.342;9.662;2023-07-28T08:27:57;99943.00;;;25.17;62.67
11648;BME280;5880;52.342;9.662;2023-07-28T08:30:24;99934.75;;;25.21;62.39
11648;BME280;5880;52.342;9.662;2023-07-28T08:32:50;99944.56;;;25.27;62.56
11648;BME280;5880;52.342;9.662;2023-07-28T08:35:16;99943.97;;;25.34;62.43
11648;BME280;5880;52.342;9.662;2023-07-28T08:37:41;99948.88;;;25.37;62.07
11648;BME280;5880;52.342;9.662;2023-07-28T08:40:08;99947.34;;;25.39;61.93
11648;BME280;5880;52.342;9.662;2023-07-28T08:42:39;99953.75;;;25.40;61.44
11648;BME280;5880;52.342;9.662;2023-07-28T08:45:06;99943.50;;;25.32;61.41
11648;BME280;5880;52.342;9.662;2023-07-28T08:47:34;99956.44;;;25.36;61.41
11648;BME280;5880;52.342;9.662;2023-07-28T08:50:00;99948.72;;;25.33;61.16
11648;BME280;5880;52.342;9.662;2023-07-28T08:52:26;99954.00;;;25.35;61.18
11648;BME280;5880;52.342;9.662;2023-07-28T08:54:53;99953.19;;;25.34;61.56
11648;BME280;5880;52.342;9.662;2023-07-28T08:57:19;99957.03;;;25.42;61.83
11648;BME280;5880;52.342;9.662;2023-07-28T08:59:45;99959.72;;;25.51;62.17
11648;BME280;5880;52.342;9.662;2023-07-28T09:02:16;99964.38;;;25.59;61.65
11648;BME280;5880;52.342;9.662;2023-07-28T09:04:43;99961.47;;;25.67;62.00
11648;BME280;5880;52.342;9.662;2023-07-28T09:07:08;99970.09;;;25.75;61.81
11648;BME280;5880;52.342;9.662;2023-07-28T09:09:35;99965.53;;;25.82;61.76
11648;BME280;5880;52.342;9.662;2023-07-28T09:12:04;99957.41;;;25.89;61.40
11648;BME280;5880;52.342;9.662;2023-07-28T09:14:33;99956.69;;;25.93;61.67
11648;BME280;5880;52.342;9.662;2023-07-28T09:17:11;99965.88;;;26.05;61.38
11648;BME280;5880;52.342;9.662;2023-07-28T09:19:56;99974.97;;;26.15;60.91
11648;BME280;5880;52.342;9.662;2023-07-28T09:22:22;99980.69;;;26.18;61.00
11648;BME280;5880;52.342;9.662;2023-07-28T09:24:50;99973.66;;;26.24;60.98
11648;BME280;5880;52.342;9.662;2023-07-28T09:27:24;99979.47;;;26.31;60.85
11648;BME280;5880;52.342;9.662;2023-07-28T09:29:52;99981.94;;;26.33;60.75
11648;BME280;5880;52.342;9.662;2023-07-28T09:32:28;99975.72;;;26.40;60.01
11648;BME280;5880;52.342;9.662;2023-07-28T09:35:06;99975.38;;;26.41;60.29
11648;BME280;5880;52.342;9.662;2023-07-28T09:37:46;99969.06;;;26.44;60.20
11648;BME280;5880;52.342;9.662;2023-07-28T09:40:19;99971.50;;;26.46;59.37
11648;BME280;5880;52.342;9.662;2023-07-28T09:42:47;99970.34;;;26.47;59.42
11648;BME280;5880;52.342;9.662;2023-07-28T09:45:19;99973.59;;;26.49;59.27
11648;BME280;5880;52.342;9.662;2023-07-28T09:47:46;99972.06;;;26.51;59.29
11648;BME280;5880;52.342;9.662;2023-07-28T09:50:15;99990.19;;;26.54;59.18
11648;BME280;5880;52.342;9.662;2023-07-28T09:52:46;99981.91;;;26.58;59.54
11648;BME280;5880;52.342;9.662;2023-07-28T09:55:12;99980.38;;;26.60;59.23
11648;BME280;5880;52.342;9.662;2023-07-28T09:57:45;99982.91;;;26.65;59.48
11648;BME280;5880;52.342;9.662;2023-07-28T10:00:14;99988.59;;;26.69;59.47
11648;BME280;5880;52.342;9.662;2023-07-28T10:02:40;99977.59;;;26.76;59.49
11648;BME280;5880;52.342;9.662;2023-07-28T10:05:07;99989.03;;;26.83;59.33
11648;BME280;5880;52.342;9.662;2023-07-28T10:07:35;99982.78;;;26.90;59.22
11648;BME280;5880;52.342;9.662;2023-07-28T10:10:07;99986.97;;;26.96;58.98
11648;BME280;5880;52.342;9.662;2023-07-28T10:12:47;99998.72;;;27.02;59.00
11648;BME280;5880;52.342;9.662;2023-07-28T10:15:20;99981.91;;;27.02;58.42
11648;BME280;5880;52.342;9.662;2023-07-28T10:17:49;99988.69;;;27.01;58.33
11648;BME280;5880;52.342;9.662;2023-07-28T10:20:38;99981.91;;;27.02;58.33
11648;BME280;5880;52.342;9.662;2023-07-28T10:23:16;99983.56;;;27.03;57.94
11648;BME280;5880;52.342;9.662;2023-07-28T10:25:44;99997.22;;;27.04;57.85
11648;BME280;5880;52.342;9.662;2023-07-28T10:28:39;99996.75;;;27.02;57.79
11648;BME280;5880;52.342;9.662;2023-07-28T10:31:09;100001.53;;;27.02;57.46
11648;BME280;5880;52.342;9.662;2023-07-28T10:33:41;100011.94;;;27.01;57.46
11648;BME280;5880;52.342;9.662;2023-07-28T10:39:13;100012.41;;;27.03;57.32
11648;BME280;5880;52.342;9.662;2023-07-28T10:42:00;100013.19;;;27.04;57.39
11648;BME280;5880;52.342;9.662;2023-07-28T10:44:27;100015.47;;;26.98;57.16
11648;BME280;5880;52.342;9.662;2023-07-28T10:46:53;100032.63;;;26.97;56.76
11648;BME280;5880;52.342;9.662;2023-07-28T10:49:20;100025.75;;;26.94;56.83
11648;BME280;5880;52.342;9.662;2023-07-28T10:51:45;100020.16;;;26.94;56.84
11648;BME280;5880;52.342;9.662;2023-07-28T10:54:12;100021.41;;;26.97;57.13
11648;BME280;5880;52.342;9.662;2023-07-28T10:56:44;100000.53;;;26.94;57.33
11648;BME280;5880;52.342;9.662;2023-07-28T10:59:10;100013.59;;;27.02;56.96
11648;BME280;5880;52.342;9.662;2023-07-28T11:01:40;100007.97;;;27.02;57.13
11648;BME280;5880;52.342;9.662;2023-07-28T11:04:17;100020.19;;;27.10;56.90
11648;BME280;5880;52.342;9.662;2023-07-28T11:06:48;100016.31;;;27.14;56.81
11648;BME280;5880;52.342;9.662;2023-07-28T11:09:18;100031.75;;;27.21;56.61
11648;BME280;5880;52.342;9.662;2023-07-28T11:11:45;100019.81;;;27.24;56.70
11648;BME280;5880;52.342;9.662;2023-07-28T11:14:11;100018.72;;;27.28;56.47
11648;BME280;5880;52.342;9.662;2023-07-28T11:16:41;100009.56;;;27.31;56.26
11648;BME280;5880;52.342;9.662;2023-07-28T11:19:09;100018.19;;;27.39;56.55
11648;BME280;5880;52.342;9.662;2023-07-28T11:21:43;100009.03;;;27.42;56.65
11648;BME280;5880;52.342;9.662;2023-07-28T11:24:11;100021.34;;;27.53;56.70
11648;BME280;5880;52.342;9.662;2023-07-28T11:26:39;100013.84;;;27.57;56.22
11648;BME280;5880;52.342;9.662;2023-07-28T11:29:05;100013.50;;;27.58;55.97
11648;BME280;5880;52.342;9.662;2023-07-28T11:31:31;100007.59;;;27.64;56.30
11648;BME280;5880;52.342;9.662;2023-07-28T11:33:59;100004.50;;;27.69;56.12
11648;BME280;5880;52.342;9.662;2023-07-28T11:36:29;100008.69;;;27.75;55.78
11648;BME280;5880;52.342;9.662;2023-07-28T11:38:59;100012.75;;;27.77;55.78
11648;BME280;5880;52.342;9.662;2023-07-28T11:41:26;100008.06;;;27.82;55.96
11648;BME280;5880;52.342;9.662;2023-07-28T11:43:53;100012.22;;;27.88;55.96
11648;BME280;5880;52.342;9.662;2023-07-28T11:46:39;100012.41;;;27.95;55.58
11648;BME280;5880;52.342;9.662;2023-07-28T11:49:17;100012.03;;;27.96;55.36
11648;BME280;5880;52.342;9.662;2023-07-28T11:51:52;100016.47;;;27.97;55.64
11648;BME280;5880;52.342;9.662;2023-07-28T11:54:23;100012.56;;;28.02;55.48
11648;BME280;5880;52.342;9.662;2023-07-28T11:56:50;100007.41;;;28.04;55.46
11648;BME280;5880;52.342;9.662;2023-07-28T11:59:19;100013.91;;;28.08;55.14
11648;BME280;5880;52.342;9.662;2023-07-28T12:02:03;100007.66;;;28.15;55.02
11648;BME280;5880;52.342;9.662;2023-07-28T12:04:37;100015.00;;;28.19;55.18
11648;BME280;5880;52.342;9.662;2023-07-28T12:07:15;100013.50;;;28.26;54.98
11648;BME280;5880;52.342;9.662;2023-07-28T12:12:20;100021.44;;;28.39;54.91
11648;BME280;5880;52.342;9.662;2023-07-28T12:14:47;100026.09;;;28.48;54.66
11648;BME280;5880;52.342;9.662;2023-07-28T12:17:19;100026.59;;;28.53;54.50
11648;BME280;5880;52.342;9.662;2023-07-28T12:20:06;100020.69;;;28.58;54.47
11648;BME280;5880;52.342;9.662;2023-07-28T12:22:43;100032.81;;;28.62;54.71
11648;BME280;5880;52.342;9.662;2023-07-28T12:25:11;100025.63;;;28.65;54.28
11648;BME280;5880;52.342;9.662;2023-07-28T12:27:37;100037.41;;;28.71;54.09
11648;BME280;5880;52.342;9.662;2023-07-28T12:30:04;100034.59;;;28.71;53.32
11648;BME280;5880;52.342;9.662;2023-07-28T12:32:30;100035.78;;;28.70;53.43
11648;BME280;5880;52.342;9.662;2023-07-28T12:34:56;100030.53;;;28.68;53.03
11648;BME280;5880;52.342;9.662;2023-07-28T12:37:21;100040.94;;;28.68;52.89
11648;BME280;5880;52.342;9.662;2023-07-28T12:39:48;100045.84;;;28.71;53.20
11648;BME280;5880;52.342;9.662;2023-07-28T12:42:14;100045.09;;;28.74;52.61
11648;BME280;5880;52.342;9.662;2023-07-28T12:44:41;100044.75;;;28.75;52.43
11648;BME280;5880;52.342;9.662;2023-07-28T12:47:08;100042.75;;;28.76;52.48
11648;BME280;5880;52.342;9.662;2023-07-28T12:49:34;100051.53;;;28.74;52.29
11648;BME280;5880;52.342;9.662;2023-07-28T12:52:03;100052.88;;;28.80;52.24
11648;BME280;5880;52.342;9.662;2023-07-28T12:54:30;100050.53;;;28.82;52.62
11648;BME280;5880;52.342;9.662;2023-07-28T12:56:55;100054.59;;;28.85;52.33
11648;BME280;5880;52.342;9.662;2023-07-28T12:59:21;100053.47;;;28.90;52.22
11648;BME280;5880;52.342;9.662;2023-07-28T13:01:47;100072.06;;;28.94;52.04
11648;BME280;5880;52.342;9.662;2023-07-28T13:04:13;100073.31;;;28.97;52.02
11648;BME280;5880;52.342;9.662;2023-07-28T13:06:39;100061.16;;;28.93;51.52
11648;BME280;5880;52.342;9.662;2023-07-28T13:09:07;100075.66;;;28.95;51.86
11648;BME280;5880;52.342;9.662;2023-07-28T13:11:34;100073.53;;;28.88;51.64
11648;BME280;5880;52.342;9.662;2023-07-28T13:14:00;100077.59;;;28.91;51.80
11648;BME280;5880;52.342;9.662;2023-07-28T13:16:26;100075.13;;;28.89;51.60
11648;BME280;5880;52.342;9.662;2023-07-28T13:18:52;100074.31;;;28.89;52.33